createdAt,value
2023-05-10T00:01:00.633Z,100605.34
2023-05-10T00:03:28.069Z,100596.06
2023-05-10T00:05:55.572Z,100602.97
2023-05-10T00:08:22.984Z,100603.84
2023-05-10T00:10:52.404Z,100606.81
2023-05-10T00:13:19.847Z,100602.78
2023-05-10T00:15:47.265Z,100605.28
2023-05-10T00:18:14.595Z,100593.16
2023-05-10T00:20:41.939Z,100596.69
2023-05-10T00:23:09.380Z,100594.72
2023-05-10T00:25:36.790Z,100593.38
2023-05-10T00:28:04.215Z,100589.66
2023-05-10T00:30:32.029Z,100587.00
2023-05-10T00:32:59.386Z,100585.41
2023-05-10T00:35:27.715Z,100573.63
2023-05-10T00:37:55.038Z,100570.38
2023-05-10T00:40:22.479Z,100566.91
2023-05-10T00:42:54.791Z,100561.78
2023-05-10T00:45:22.393Z,100564.09
2023-05-10T00:47:50.169Z,100554.31
2023-05-10T00:50:18.699Z,100557.50
2023-05-10T00:52:46.182Z,100560.84
2023-05-10T00:55:14.754Z,100552.81
2023-05-10T00:57:42.564Z,100559.06
2023-05-10T01:00:10.868Z,100551.81
2023-05-10T01:02:38.357Z,100548.78
2023-05-10T01:05:06.401Z,100546.72
2023-05-10T01:07:33.736Z,100547.09
2023-05-10T01:10:01.264Z,100538.22
2023-05-10T01:12:31.428Z,100535.91
2023-05-10T01:14:59.033Z,100530.78
2023-05-10T01:17:26.915Z,100529.19
2023-05-10T01:19:54.619Z,100535.28
2023-05-10T01:22:45.913Z,100532.78
2023-05-10T01:25:16.263Z,100524.38
2023-05-10T01:28:11.402Z,100530.94
2023-05-10T01:31:03.852Z,100528.47
2023-05-10T01:33:47.915Z,100526.41
2023-05-10T01:36:28.057Z,100513.75
2023-05-10T01:39:06.645Z,100521.69
2023-05-10T01:41:55.603Z,100516.63
2023-05-10T01:44:32.441Z,100513.13
2023-05-10T01:47:07.345Z,100512.31
2023-05-10T01:49:41.643Z,100525.53
2023-05-10T01:52:15.047Z,100522.44
2023-05-10T01:54:52.719Z,100521.44
2023-05-10T01:57:21.557Z,100527.69
2023-05-10T01:59:51.850Z,100524.34
2023-05-10T02:02:22.342Z,100527.69
2023-05-10T02:04:51.738Z,100536.00
2023-05-10T02:07:20.133Z,100537.09
2023-05-10T02:09:49.067Z,100538.34
2023-05-10T02:12:18.091Z,100538.34
2023-05-10T02:14:46.243Z,100543.13
2023-05-10T02:17:17.802Z,100547.91
2023-05-10T02:19:47.385Z,100547.72
2023-05-10T02:22:16.426Z,100547.25
2023-05-10T02:24:45.296Z,100550.78
2023-05-10T02:27:15.256Z,100550.00
2023-05-10T02:29:44.113Z,100545.59
2023-05-10T02:32:13.136Z,100544.91
2023-05-10T02:34:41.909Z,100547.97
2023-05-10T02:37:10.566Z,100550.66
2023-05-10T02:39:41.637Z,100555.00
2023-05-10T02:42:09.876Z,100552.94
2023-05-10T02:44:37.819Z,100553.59
2023-05-10T02:47:05.331Z,100560.72
2023-05-10T02:49:32.654Z,100556.06
2023-05-10T02:52:05.400Z,100555.97
2023-05-10T02:54:37.584Z,100557.41
2023-05-10T02:57:05.452Z,100556.66
2023-05-10T02:59:33.688Z,100554.81
2023-05-10T03:02:01.593Z,100548.28
2023-05-10T03:04:28.983Z,100547.16
2023-05-10T03:06:57.916Z,100546.38
2023-05-10T03:09:27.088Z,100546.50
2023-05-10T03:12:27.996Z,100547.28
2023-05-10T03:15:13.921Z,100545.84
2023-05-10T03:17:44.325Z,100548.25
2023-05-10T03:20:13.891Z,100549.09
2023-05-10T03:22:47.860Z,100544.88
2023-05-10T03:25:17.561Z,100546.38
2023-05-10T03:27:46.182Z,100547.00
2023-05-10T03:30:15.078Z,100542.03
2023-05-10T03:32:42.797Z,100538.00
2023-05-10T03:35:10.982Z,100536.78
2023-05-10T03:37:38.900Z,100527.25
2023-05-10T03:40:07.317Z,100526.97
2023-05-10T03:42:37.169Z,100520.72
2023-05-10T03:45:04.817Z,100524.25
2023-05-10T03:47:32.638Z,100533.00
2023-05-10T03:50:03.491Z,100531.34
2023-05-10T03:52:32.690Z,100530.66
2023-05-10T03:55:00.095Z,100532.31
2023-05-10T03:57:27.524Z,100535.94
2023-05-10T03:59:54.900Z,100532.94
2023-05-10T04:02:25.512Z,100536.25
2023-05-10T04:04:53.239Z,100537.03
2023-05-10T04:07:21.106Z,100528.34
2023-05-10T04:09:48.430Z,100526.50
2023-05-10T04:12:15.872Z,100525.53
2023-05-10T04:14:43.181Z,100525.78
2023-05-10T04:17:11.702Z,100521.28
2023-05-10T04:19:39.323Z,100518.44
2023-05-10T04:22:06.657Z,100524.22
2023-05-10T04:24:34.080Z,100526.59
2023-05-10T04:27:01.582Z,100523.63
2023-05-10T04:29:28.897Z,100524.53
2023-05-10T04:31:57.580Z,100520.94
2023-05-10T04:34:24.920Z,100529.59
2023-05-10T04:36:52.316Z,100524.84
2023-05-10T04:39:20.065Z,100529.22
2023-05-10T04:41:47.461Z,100528.28
2023-05-10T04:44:14.820Z,100536.81
2023-05-10T04:46:42.353Z,100535.00
2023-05-10T04:49:09.752Z,100525.09
2023-05-10T04:51:38.627Z,100537.28
2023-05-10T04:54:06.828Z,100538.63
2023-05-10T04:56:34.644Z,100534.50
2023-05-10T04:59:02.265Z,100534.66
2023-05-10T05:01:29.852Z,100534.81
2023-05-10T05:03:57.300Z,100544.59
2023-05-10T05:06:26.144Z,100539.13
2023-05-10T05:08:53.787Z,100534.34
2023-05-10T05:11:22.141Z,100543.91
2023-05-10T05:13:49.485Z,100546.41
2023-05-10T05:16:16.929Z,100538.50
2023-05-10T05:18:44.429Z,100547.88
2023-05-10T05:21:18.571Z,100544.31
2023-05-10T05:23:46.503Z,100544.38
2023-05-10T05:26:13.891Z,100546.88
2023-05-10T05:28:41.219Z,100541.50
2023-05-10T05:31:11.654Z,100551.53
2023-05-10T05:33:39.019Z,100541.25
2023-05-10T05:36:08.844Z,100542.59
2023-05-10T05:38:36.174Z,100538.31
2023-05-10T05:41:04.080Z,100544.84
2023-05-10T05:43:31.445Z,100537.47
2023-05-10T05:45:59.174Z,100552.25
2023-05-10T05:48:27.238Z,100547.03
2023-05-10T05:50:59.649Z,100544.72
2023-05-10T05:53:27.434Z,100538.59
2023-05-10T05:55:56.446Z,100542.22
2023-05-10T05:58:24.200Z,100541.72
2023-05-10T06:00:53.042Z,100546.25
2023-05-10T06:03:23.776Z,100542.22
2023-05-10T06:05:51.263Z,100557.66
2023-05-10T06:08:18.709Z,100552.19
2023-05-10T06:10:46.431Z,100546.50
2023-05-10T06:13:13.973Z,100549.22
2023-05-10T06:15:41.677Z,100550.38
2023-05-10T06:18:09.219Z,100551.28
2023-05-10T06:20:36.645Z,100553.63
2023-05-10T06:23:04.040Z,100548.72
2023-05-10T06:25:31.404Z,100545.88
2023-05-10T06:27:59.029Z,100551.69
2023-05-10T06:30:30.384Z,100548.13
2023-05-10T06:32:58.196Z,100547.72
2023-05-10T06:35:25.836Z,100547.03
2023-05-10T06:37:53.562Z,100552.69
2023-05-10T06:40:21.177Z,100546.34
2023-05-10T06:42:49.341Z,100548.47
2023-05-10T06:45:17.442Z,100552.25
2023-05-10T06:47:45.374Z,100554.41
2023-05-10T06:50:13.903Z,100559.75
2023-05-10T06:52:41.366Z,100549.75
2023-05-10T06:55:09.822Z,100556.25
2023-05-10T06:57:37.353Z,100553.28
2023-05-10T07:00:05.913Z,100549.41
2023-05-10T07:02:33.683Z,100547.91
2023-05-10T07:05:06.105Z,100549.75
2023-05-10T07:07:34.985Z,100548.03
2023-05-10T07:10:02.849Z,100559.31
2023-05-10T07:12:30.370Z,100561.59
2023-05-10T07:14:57.757Z,100565.56
2023-05-10T07:17:25.298Z,100558.50
2023-05-10T07:19:52.908Z,100560.44
2023-05-10T07:22:20.210Z,100553.94
2023-05-10T07:24:47.706Z,100557.47
2023-05-10T07:27:15.057Z,100563.38
2023-05-10T07:29:42.400Z,100563.63
2023-05-10T07:32:09.872Z,100567.03
2023-05-10T07:34:37.327Z,100567.38
2023-05-10T07:37:04.810Z,100566.44
2023-05-10T07:39:32.209Z,100580.91
2023-05-10T07:41:59.538Z,100581.38
2023-05-10T07:44:29.057Z,100577.94
2023-05-10T07:46:56.756Z,100586.56
2023-05-10T07:49:27.201Z,100579.00
2023-05-10T07:51:54.561Z,100590.13
2023-05-10T07:54:22.617Z,100585.13
2023-05-10T07:56:49.952Z,100592.22
2023-05-10T07:59:18.302Z,100601.19
2023-05-10T08:01:46.184Z,100602.44
2023-05-10T08:04:13.800Z,100602.09
2023-05-10T08:06:41.469Z,100607.19
2023-05-10T08:09:09.732Z,100605.03
2023-05-10T08:11:40.115Z,100607.81
2023-05-10T08:14:07.759Z,100601.19
2023-05-10T08:16:35.490Z,100609.97
2023-05-10T08:19:02.976Z,100614.72
2023-05-10T08:21:30.482Z,100610.81
2023-05-10T08:23:58.738Z,100609.34
2023-05-10T08:26:26.913Z,100612.75
2023-05-10T08:28:54.302Z,100613.66
2023-05-10T08:31:21.724Z,100617.16
2023-05-10T08:33:49.245Z,100621.63
2023-05-10T08:36:20.747Z,100617.63
2023-05-10T08:38:52.201Z,100624.72
2023-05-10T08:41:24.851Z,100628.38
2023-05-10T08:43:53.253Z,100622.56
2023-05-10T08:46:22.130Z,100622.03
2023-05-10T08:48:53.082Z,100621.47
2023-05-10T08:51:24.852Z,100625.88
2023-05-10T08:53:52.359Z,100624.28
2023-05-10T08:56:21.332Z,100622.69
2023-05-10T08:58:49.947Z,100620.41
2023-05-10T09:01:19.235Z,100630.09
2023-05-10T09:03:50.462Z,100628.50
2023-05-10T09:06:18.173Z,100623.41
2023-05-10T09:08:45.986Z,100623.06
2023-05-10T09:11:13.714Z,100627.94
2023-05-10T09:13:41.463Z,100626.25
2023-05-10T09:16:20.556Z,100626.75
2023-05-10T09:18:50.641Z,100620.00
2023-05-10T09:21:18.222Z,100621.38
2023-05-10T09:23:48.613Z,100617.94
2023-05-10T09:26:17.089Z,100615.78
2023-05-10T09:28:53.482Z,100621.16
2023-05-10T09:31:21.212Z,100614.34
2023-05-10T09:33:50.240Z,100611.81
2023-05-10T09:36:17.972Z,100611.25
2023-05-10T09:38:53.708Z,100613.19
2023-05-10T09:41:23.435Z,100611.34
2023-05-10T09:43:52.438Z,100608.84
2023-05-10T09:46:19.828Z,100612.50
2023-05-10T09:48:48.894Z,100611.69
2023-05-10T09:51:23.953Z,100602.38
2023-05-10T09:54:15.005Z,100608.28
2023-05-10T09:56:43.096Z,100602.16
2023-05-10T09:59:12.517Z,100607.91
2023-05-10T10:01:40.378Z,100608.72
2023-05-10T10:04:10.461Z,100598.63
2023-05-10T10:06:39.273Z,100601.31
2023-05-10T10:09:08.497Z,100601.13
2023-05-10T10:11:39.986Z,100599.56
2023-05-10T10:14:07.356Z,100596.19
2023-05-10T10:16:34.991Z,100597.72
2023-05-10T10:19:03.081Z,100601.59
2023-05-10T10:21:30.601Z,100598.13
2023-05-10T10:23:57.950Z,100600.28
2023-05-10T10:26:26.108Z,100602.75
2023-05-10T10:29:06.240Z,100602.47
2023-05-10T10:31:40.279Z,100594.91
2023-05-10T10:34:09.072Z,100599.09
2023-05-10T10:36:48.893Z,100583.31
2023-05-10T10:39:16.978Z,100596.03
2023-05-10T10:41:54.835Z,100590.16
2023-05-10T10:44:31.906Z,100596.44
2023-05-10T10:47:10.278Z,100585.63
2023-05-10T10:49:47.067Z,100593.16
2023-05-10T10:52:24.887Z,100581.31
2023-05-10T10:55:04.009Z,100582.28
2023-05-10T10:57:56.028Z,100579.34
2023-05-10T11:00:32.256Z,100579.13
2023-05-10T11:03:07.473Z,100573.16
2023-05-10T11:05:39.471Z,100577.59
2023-05-10T11:08:14.420Z,100571.34
2023-05-10T11:10:53.825Z,100564.28
2023-05-10T11:13:39.133Z,100570.69
2023-05-10T11:16:16.148Z,100557.16
2023-05-10T11:18:55.078Z,100562.84
2023-05-10T11:21:22.825Z,100557.03
2023-05-10T11:23:51.577Z,100562.25
2023-05-10T11:26:19.584Z,100553.59
2023-05-10T11:28:53.144Z,100557.84
2023-05-10T11:31:21.367Z,100557.38
2023-05-10T11:33:49.809Z,100560.69
2023-05-10T11:36:21.812Z,100562.13
2023-05-10T11:38:49.660Z,100555.69
2023-05-10T11:41:19.452Z,100557.69
2023-05-10T11:43:48.715Z,100556.81
2023-05-10T11:46:18.948Z,100563.84
2023-05-10T11:48:46.797Z,100564.13
2023-05-10T11:51:14.323Z,100570.28
2023-05-10T11:53:41.770Z,100571.00
2023-05-10T11:56:11.358Z,100569.31
2023-05-10T11:58:40.264Z,100573.34
2023-05-10T12:01:08.733Z,100572.88
2023-05-10T12:03:36.897Z,100571.94
2023-05-10T12:06:04.976Z,100576.03
2023-05-10T12:08:32.321Z,100574.63
2023-05-10T12:11:08.449Z,100574.53
2023-05-10T12:13:43.882Z,100573.16
2023-05-10T12:16:30.028Z,100582.03
2023-05-10T12:18:59.629Z,100570.69
2023-05-10T12:21:28.992Z,100579.97
2023-05-10T12:24:04.088Z,100576.41
2023-05-10T12:26:32.036Z,100575.03
2023-05-10T12:29:16.784Z,100581.13
2023-05-10T12:31:54.896Z,100582.63
2023-05-10T12:34:32.564Z,100582.63
2023-05-10T12:37:01.182Z,100587.22
2023-05-10T12:39:40.021Z,100580.84
2023-05-10T12:42:08.042Z,100585.81
2023-05-10T12:44:35.356Z,100588.47
2023-05-10T12:47:02.769Z,100595.44
2023-05-10T12:49:30.170Z,100590.00
2023-05-10T12:51:57.526Z,100591.53
2023-05-10T12:54:25.006Z,100587.44
2023-05-10T12:56:52.385Z,100594.50
2023-05-10T12:59:19.724Z,100584.47
2023-05-10T13:01:47.762Z,100582.53
2023-05-10T13:04:15.190Z,100584.94
2023-05-10T13:06:42.597Z,100582.78
2023-05-10T13:09:09.852Z,100577.34
2023-05-10T13:11:37.521Z,100584.28
2023-05-10T13:14:04.788Z,100581.34
2023-05-10T13:16:32.869Z,100579.94
2023-05-10T13:19:02.250Z,100576.78
2023-05-10T13:21:29.744Z,100574.13
2023-05-10T13:23:57.034Z,100572.53
2023-05-10T13:26:24.515Z,100562.56
2023-05-10T13:28:52.712Z,100562.34
2023-05-10T13:31:20.390Z,100561.41
2023-05-10T13:33:49.855Z,100562.38
2023-05-10T13:36:17.207Z,100572.78
2023-05-10T13:38:44.508Z,100568.34
2023-05-10T13:41:11.892Z,100563.25
2023-05-10T13:43:39.180Z,100559.34
2023-05-10T13:46:06.640Z,100560.34
2023-05-10T13:48:34.631Z,100565.34
2023-05-10T13:51:03.004Z,100556.66
2023-05-10T13:53:30.322Z,100549.19
2023-05-10T13:55:58.217Z,100554.19
2023-05-10T13:58:25.607Z,100553.13
2023-05-10T14:00:52.931Z,100558.25
2023-05-10T14:03:20.349Z,100554.50
2023-05-10T14:05:48.329Z,100547.34
2023-05-10T14:08:17.849Z,100546.56
2023-05-10T14:10:45.231Z,100542.50
2023-05-10T14:13:13.204Z,100538.03
2023-05-10T14:15:40.515Z,100544.28
2023-05-10T14:18:07.800Z,100541.75
2023-05-10T14:20:35.213Z,100537.66
2023-05-10T14:23:02.645Z,100528.22
2023-05-10T14:25:30.119Z,100527.88
2023-05-10T14:27:57.749Z,100522.38
2023-05-10T14:30:25.358Z,100531.31
2023-05-10T14:32:54.977Z,100530.84
2023-05-10T14:35:22.540Z,100522.19
2023-05-10T14:37:50.310Z,100524.28
2023-05-10T14:40:21.971Z,100521.06
2023-05-10T14:42:49.313Z,100523.44
2023-05-10T14:45:17.049Z,100517.31
2023-05-10T14:47:44.572Z,100514.88
2023-05-10T14:50:18.802Z,100521.59
2023-05-10T14:52:52.250Z,100514.78
2023-05-10T14:55:19.680Z,100509.69
2023-05-10T14:57:48.246Z,100513.00
2023-05-10T15:00:16.990Z,100510.38
2023-05-10T15:02:44.939Z,100510.00
2023-05-10T15:05:12.727Z,100512.06
2023-05-10T15:07:40.337Z,100513.28
2023-05-10T15:10:08.448Z,100511.88
2023-05-10T15:12:35.778Z,100506.69
2023-05-10T15:15:03.396Z,100506.91
2023-05-10T15:17:31.142Z,100503.47
2023-05-10T15:19:58.870Z,100515.13
2023-05-10T15:22:26.558Z,100499.38
2023-05-10T15:24:53.888Z,100506.00
2023-05-10T15:27:21.250Z,100504.00
2023-05-10T15:29:48.495Z,100503.22
2023-05-10T15:32:15.837Z,100499.69
2023-05-10T15:34:43.204Z,100510.34
2023-05-10T15:37:10.906Z,100499.91
2023-05-10T15:39:38.221Z,100503.53
2023-05-10T15:42:05.531Z,100500.16
2023-05-10T15:44:34.517Z,100500.41
2023-05-10T15:47:03.576Z,100492.34
2023-05-10T15:49:31.054Z,100495.88
2023-05-10T15:51:58.554Z,100490.75
2023-05-10T15:54:26.689Z,100490.75
2023-05-10T15:56:55.061Z,100497.13
2023-05-10T15:59:22.422Z,100490.59
2023-05-10T16:01:50.991Z,100495.25
2023-05-10T16:04:18.490Z,100486.88
2023-05-10T16:06:45.888Z,100486.06
2023-05-10T16:09:16.081Z,100485.63
2023-05-10T16:11:44.058Z,100487.31
2023-05-10T16:14:11.484Z,100480.84
2023-05-10T16:16:38.957Z,100485.53
2023-05-10T16:19:06.454Z,100482.00
2023-05-10T16:21:34.207Z,100485.97
2023-05-10T16:24:03.300Z,100485.63
2023-05-10T16:26:30.721Z,100488.47
2023-05-10T16:28:58.014Z,100490.03
2023-05-10T16:31:25.461Z,100489.00
2023-05-10T16:33:52.839Z,100491.19
2023-05-10T16:36:20.449Z,100490.91
2023-05-10T16:38:47.750Z,100490.38
2023-05-10T16:41:15.140Z,100491.94
2023-05-10T16:43:42.492Z,100490.28
2023-05-10T16:46:11.058Z,100493.53
2023-05-10T16:48:38.828Z,100491.16
2023-05-10T16:51:06.259Z,100496.63
2023-05-10T16:53:34.535Z,100486.03
2023-05-10T16:56:02.066Z,100488.78
2023-05-10T16:58:30.579Z,100485.78
2023-05-10T17:00:58.025Z,100481.53
2023-05-10T17:03:25.722Z,100481.16
2023-05-10T17:05:53.196Z,100484.47
2023-05-10T17:08:22.135Z,100478.38
2023-05-10T17:10:49.578Z,100493.09
2023-05-10T17:13:17.302Z,100488.84
2023-05-10T17:15:47.582Z,100493.78
2023-05-10T17:18:15.045Z,100485.16
2023-05-10T17:20:44.569Z,100485.38
2023-05-10T17:23:12.009Z,100489.47
2023-05-10T17:25:39.520Z,100485.28
2023-05-10T17:28:06.912Z,100484.78
2023-05-10T17:30:34.291Z,100486.63
2023-05-10T17:33:01.846Z,100481.41
2023-05-10T17:35:31.358Z,100487.88
2023-05-10T17:37:58.767Z,100487.09
2023-05-10T17:40:28.128Z,100489.72
2023-05-10T17:42:55.960Z,100502.94
2023-05-10T17:45:23.525Z,100494.28
2023-05-10T17:47:50.992Z,100482.91
2023-05-10T17:50:18.478Z,100492.91
2023-05-10T17:52:46.457Z,100489.97
2023-05-10T17:55:14.077Z,100491.72
2023-05-10T17:57:44.423Z,100498.84
2023-05-10T18:00:12.527Z,100491.22
2023-05-10T18:02:39.838Z,100496.69
2023-05-10T18:05:07.824Z,100499.41
2023-05-10T18:07:36.142Z,100503.13
2023-05-10T18:10:07.854Z,100496.69
2023-05-10T18:12:35.332Z,100501.38
2023-05-10T18:15:02.865Z,100504.56
2023-05-10T18:17:33.492Z,100500.25
2023-05-10T18:20:00.999Z,100498.84
2023-05-10T18:22:28.454Z,100500.09
2023-05-10T18:24:56.182Z,100504.66
2023-05-10T18:27:23.560Z,100507.06
2023-05-10T18:29:50.995Z,100505.69
2023-05-10T18:32:21.405Z,100507.72
2023-05-10T18:34:48.768Z,100507.28
2023-05-10T18:37:16.473Z,100511.84
2023-05-10T18:39:43.898Z,100515.50
2023-05-10T18:42:11.453Z,100527.09
2023-05-10T18:44:38.821Z,100524.13
2023-05-10T18:47:06.221Z,100520.25
2023-05-10T18:49:33.741Z,100526.97
2023-05-10T18:52:01.441Z,100524.38
2023-05-10T18:54:29.838Z,100522.66
2023-05-10T18:56:58.696Z,100521.88
2023-05-10T18:59:27.782Z,100519.50
2023-05-10T19:01:57.106Z,100515.50
2023-05-10T19:04:25.089Z,100520.97
2023-05-10T19:06:52.982Z,100518.47
2023-05-10T19:09:21.500Z,100525.81
2023-05-10T19:11:49.151Z,100524.31
2023-05-10T19:14:16.597Z,100520.88
2023-05-10T19:16:44.245Z,100516.09
2023-05-10T19:19:12.031Z,100522.28
2023-05-10T19:21:40.188Z,100515.97
2023-05-10T19:24:10.142Z,100521.56
2023-05-10T19:26:37.573Z,100525.00
2023-05-10T19:29:06.626Z,100524.41
2023-05-10T19:31:38.266Z,100530.25
2023-05-10T19:34:06.429Z,100531.16
2023-05-10T19:36:34.814Z,100531.59
2023-05-10T19:39:02.480Z,100533.34
2023-05-10T19:41:30.935Z,100538.56
2023-05-10T19:43:58.509Z,100535.13
2023-05-10T19:46:27.029Z,100535.38
2023-05-10T19:48:54.829Z,100547.91
2023-05-10T19:51:22.406Z,100547.13
2023-05-10T19:53:49.798Z,100544.84
2023-05-10T19:56:18.402Z,100546.88
2023-05-10T19:58:45.871Z,100553.34
2023-05-10T20:01:13.944Z,100551.75
2023-05-10T20:03:41.440Z,100549.63
2023-05-10T20:06:09.030Z,100553.59
2023-05-10T20:08:36.413Z,100547.44
2023-05-10T20:11:04.915Z,100540.59
2023-05-10T20:13:35.091Z,100545.59
2023-05-10T20:16:03.805Z,100541.63
2023-05-10T20:18:31.445Z,100537.31
2023-05-10T20:21:01.065Z,100539.25
2023-05-10T20:23:28.615Z,100538.81
2023-05-10T20:25:56.018Z,100536.28
2023-05-10T20:28:26.347Z,100533.09
2023-05-10T20:30:57.314Z,100528.00
2023-05-10T20:33:25.550Z,100527.50
2023-05-10T20:35:53.825Z,100528.63
2023-05-10T20:38:22.350Z,100516.44
2023-05-10T20:40:49.911Z,100531.03
2023-05-10T20:43:22.195Z,100525.09
2023-05-10T20:45:49.827Z,100529.78
2023-05-10T20:48:17.605Z,100534.81
2023-05-10T20:50:45.389Z,100527.50
2023-05-10T20:53:14.530Z,100531.03
2023-05-10T20:55:42.296Z,100532.31
2023-05-10T20:58:09.691Z,100533.69
2023-05-10T21:00:37.216Z,100531.41
2023-05-10T21:03:04.966Z,100533.84
2023-05-10T21:05:32.568Z,100539.47
2023-05-10T21:08:02.367Z,100533.78
2023-05-10T21:10:29.778Z,100533.34
2023-05-10T21:12:57.224Z,100537.53
2023-05-10T21:15:25.646Z,100535.41
2023-05-10T21:17:54.041Z,100527.63
2023-05-10T21:20:21.648Z,100525.38
2023-05-10T21:22:49.028Z,100524.22
2023-05-10T21:25:17.246Z,100521.50
2023-05-10T21:27:44.666Z,100519.13
2023-05-10T21:30:12.235Z,100515.47
2023-05-10T21:32:39.729Z,100521.06
2023-05-10T21:35:07.823Z,100527.88
2023-05-10T21:37:35.265Z,100522.06
2023-05-10T21:40:04.528Z,100517.28
2023-05-10T21:42:32.132Z,100521.25
2023-05-10T21:44:59.518Z,100528.00
2023-05-10T21:47:27.539Z,100519.47
2023-05-10T21:49:54.992Z,100518.56
2023-05-10T21:52:22.385Z,100525.38
2023-05-10T21:54:49.756Z,100530.16
2023-05-10T21:57:17.340Z,100529.72
2023-05-10T21:59:44.842Z,100526.84
2023-05-10T22:02:12.173Z,100531.41
2023-05-10T22:04:39.574Z,100518.66
2023-05-10T22:07:06.936Z,100518.78
2023-05-10T22:09:34.397Z,100513.09
2023-05-10T22:12:01.785Z,100515.13
2023-05-10T22:14:29.236Z,100511.69
2023-05-10T22:16:58.005Z,100515.50
2023-05-10T22:19:25.535Z,100506.94
2023-05-10T22:21:53.341Z,100511.63
2023-05-10T22:24:21.484Z,100509.09
2023-05-10T22:26:48.890Z,100500.47
2023-05-10T22:29:16.300Z,100511.63
2023-05-10T22:31:44.042Z,100500.78
2023-05-10T22:34:11.464Z,100495.66
2023-05-10T22:36:38.828Z,100497.84
2023-05-10T22:39:06.397Z,100497.25
2023-05-10T22:41:34.421Z,100490.66
2023-05-10T22:44:02.508Z,100494.75
2023-05-10T22:46:31.812Z,100486.69
2023-05-10T22:48:59.707Z,100488.34
2023-05-10T22:51:27.072Z,100481.66
2023-05-10T22:53:54.439Z,100487.91
2023-05-10T22:56:22.669Z,100482.88
2023-05-10T22:58:51.082Z,100483.94
2023-05-10T23:01:18.430Z,100489.50
2023-05-10T23:03:45.962Z,100485.78
2023-05-10T23:06:13.340Z,100484.75
2023-05-10T23:08:40.841Z,100485.28
2023-05-10T23:11:08.125Z,100477.00
2023-05-10T23:13:36.024Z,100472.78
2023-05-10T23:16:06.727Z,100463.47
2023-05-10T23:18:34.211Z,100465.16
2023-05-10T23:21:01.643Z,100464.16
2023-05-10T23:23:29.079Z,100458.44
2023-05-10T23:25:56.681Z,100462.31
2023-05-10T23:28:24.071Z,100450.47
2023-05-10T23:30:56.321Z,100447.19
2023-05-10T23:33:24.829Z,100450.28
2023-05-10T23:35:53.095Z,100436.38
2023-05-10T23:38:20.857Z,100439.81
2023-05-10T23:40:49.822Z,100439.91
2023-05-10T23:43:19.723Z,100440.25
2023-05-10T23:45:57.367Z,100430.81
2023-05-10T23:48:24.930Z,100433.41
2023-05-10T23:50:52.312Z,100433.88
2023-05-10T23:53:19.838Z,100430.81
2023-05-10T23:55:47.153Z,100427.16
2023-05-10T23:58:14.584Z,100421.47
